Impacts TAF Board
For situational awareness. Not to be used for flight planning purposes.
IDs:

KMDW - Chicago/Midway Intl, IL, US

Issued at 0533 UTC 23 Feb 2019
Updated at 0633 UTC 23 Feb 2019
Potential Impact None Slight Moderate High
Time0553Z 23/07Z 23/08Z 23/09Z 23/10Z 23/11Z 23/12Z 23/13Z 23/14Z 23/15Z 23/16Z 23/17Z 23/18Z 23/19Z>>
Type OBS PRVL PRVL PRVL PRVL PRVL PRVL PRVL PRVL PRVL PRVL PRVL PRVL PRVL
VIS 10 >6 >6 >6 >6 >6 >6 >6 >6 5 5 5 3 3
CIG 90 80 80 50 50 50 30 30 30 7 7 7 5 5
Cover OVC OVC OVC OVC OVC OVC OVC OVC OVC OVC OVC OVC OVC OVC
FltCat VFR VFR VFR VFR VFR VFR MVFR MVFR MVFR IFR IFR IFR IFR IFR
WX -- -- -- -- -- -- -- -- -- -SHRA BR -SHRA BR -SHRA BR -SHRA BR -SHRA BR
WDir 100 90 90 100 100 100 110 110 110 110 110 110 100 100
WSpd 9 9 9 9 9 9 10 10 10 11 11 11 11 11
WGst -- -- -- -- -- -- -- -- -- -- -- -- -- --
Raw TAF
KMDW 230533Z 2306/2412 09009KT P6SM OVC080
  FM230900 10009KT P6SM OVC050
  FM231200 11010KT P6SM SCT015 OVC030
  FM231500 11011KT 5SM -SHRA BR OVC007
  FM231800 10011KT 3SM -SHRA BR OVC005
  FM232100 09010KT 1SM -SHRA BR OVC004
  PROB30 2321/2324 1/2SM -SHRA FG OVC003
  FM240000 13012KT 3SM -SHRA BR BKN004 OVC010
  PROB30 2400/2403 1SM -TSRA BR BKN010 OVC020CB
  FM240300 16012G18KT 5SM BR VCSH SCT004 OVC010 WS015/22045KT
  FM240600 19014G21KT 5SM RA BR SCT008 OVC015 WS020/23045KT
  FM241000 26020G32KT 6SM -SHSN OVC015


Raw METAR
KMDW 230553Z 10009KT 10SM OVC090 02/M03 A3021 RMK AO2 SLP240 T00171028 10022 20006 400331050 58034
KMDW 230453Z 10007KT 10SM OVC085 02/M02 A3027 RMK AO2 SLP260 T00171022
KMDW 230353Z 07008KT 10SM OVC085 02/M02 A3030 RMK AO2 SLP270 T00171022

METAR Board
Radar Display
Forecast Discussion
For situational awareness. Not to be used for flight planning purposes.